Time;durP1;ratioP1;P1;durP2;ratioP2;P2;SDS_P1;SDS_P2;PMS_P1;PMS_P2;Temp;Humidity;BMP_temperature;BMP_pressure;BME280_temperature;BME280_humidity;BME280_pressure;Samples;Min_cycle;Max_cycle;Signal;HPM_P1;HPM_P2
2021/11/03 00:00:27;;;;;;;72.15;25.33;;;5.10;99.90;;;;;;5025320;28;20057;-76
2021/11/03 00:02:54;;;;;;;54.78;22.10;;;4.90;99.90;;;;;;5025326;28;20045;-76
2021/11/03 00:05:21;;;;;;;50.75;21.98;;;4.80;99.90;;;;;;5025750;28;20574;-76
2021/11/03 00:07:48;;;;;;;57.42;23.05;;;4.80;99.90;;;;;;5028194;28;20054;-76
2021/11/03 00:10:16;;;;;;;58.72;23.17;;;4.70;99.90;;;;;;5005751;28;20053;-75
2021/11/03 00:12:43;;;;;;;80.53;27.42;;;4.70;99.90;;;;;;5023376;28;20050;-76
2021/11/03 00:15:10;;;;;;;64.50;24.77;;;4.70;99.90;;;;;;5026380;28;20049;-75
2021/11/03 00:17:38;;;;;;;65.85;24.77;;;4.50;99.90;;;;;;5027168;28;20045;-76
2021/11/03 00:20:10;;;;;;;93.28;33.65;;;4.70;99.90;;;;;;5010106;28;20049;-76
2021/11/03 00:22:37;;;;;;;95.63;26.98;;;4.70;99.90;;;;;;5027419;28;20462;-76
2021/11/03 00:25:06;;;;;;;71.35;24.98;;;4.60;99.90;;;;;;5026092;28;20152;-76
2021/11/03 00:27:33;;;;;;;93.47;28.50;;;4.60;99.90;;;;;;5010124;28;20466;-76
2021/11/03 00:29:59;;;;;;;72.18;26.23;;;4.40;99.90;;;;;;5027240;28;20123;-76
2021/11/03 00:32:26;;;;;;;70.70;25.67;;;4.20;99.90;;;;;;5008483;28;20112;-75
2021/11/03 00:34:53;;;;;;;61.17;23.42;;;4.10;99.90;;;;;;5008082;28;20046;-75
2021/11/03 00:37:20;;;;;;;80.30;25.70;;;4.00;99.90;;;;;;4999833;28;20054;-75
2021/11/03 00:39:47;;;;;;;63.00;23.33;;;4.00;99.90;;;;;;5026320;28;20408;-75
2021/11/03 00:42:14;;;;;;;69.05;21.30;;;3.90;99.90;;;;;;5016199;28;20072;-75
2021/11/03 00:44:41;;;;;;;77.28;23.05;;;3.90;99.90;;;;;;4992562;28;20531;-76
2021/11/03 00:47:08;;;;;;;74.07;22.33;;;3.80;99.90;;;;;;5025553;28;20528;-75
2021/11/03 00:49:34;;;;;;;72.47;20.88;;;3.80;99.90;;;;;;5027136;28;20487;-76
2021/11/03 00:52:02;;;;;;;77.40;22.13;;;3.70;99.90;;;;;;5009206;28;20437;-75
2021/11/03 00:54:28;;;;;;;70.00;23.08;;;3.60;99.90;;;;;;5043378;28;20113;-75
2021/11/03 00:56:55;;;;;;;66.88;20.65;;;3.50;99.90;;;;;;5008574;28;20053;-75
2021/11/03 00:59:22;;;;;;;66.53;20.98;;;3.50;99.90;;;;;;5009701;28;20088;-75
2021/11/03 01:01:49;;;;;;;61.92;21.45;;;3.30;99.90;;;;;;5026714;28;20049;-76
2021/11/03 01:04:17;;;;;;;60.63;21.15;;;3.30;99.90;;;;;;5041281;28;20053;-76
2021/11/03 01:06:45;;;;;;;70.07;21.00;;;3.30;99.90;;;;;;5038386;28;20053;-75
2021/11/03 01:09:12;;;;;;;64.68;20.73;;;3.30;99.90;;;;;;5024950;28;20111;-76
2021/11/03 01:11:40;;;;;;;52.58;18.85;;;3.20;99.90;;;;;;5023129;28;20049;-75
2021/11/03 01:14:08;;;;;;;56.90;19.00;;;3.10;99.90;;;;;;5024692;28;20045;-76
2021/11/03 01:16:35;;;;;;;53.08;19.27;;;3.20;99.90;;;;;;5025980;28;20519;-75
2021/11/03 01:19:03;;;;;;;70.45;21.58;;;3.30;99.90;;;;;;5024787;28;20377;-75
2021/11/03 01:21:31;;;;;;;72.22;22.73;;;3.30;99.90;;;;;;5008818;28;20046;-75
2021/11/03 01:23:58;;;;;;;63.45;20.05;;;3.20;99.90;;;;;;5027279;28;20511;-75
2021/11/03 01:26:25;;;;;;;65.57;21.23;;;3.10;99.90;;;;;;5025298;28;20064;-75
2021/11/03 01:28:52;;;;;;;99.68;24.88;;;3.20;99.90;;;;;;5025440;28;20401;-75
2021/11/03 01:31:20;;;;;;;82.03;22.85;;;3.10;99.90;;;;;;5009994;28;20076;-75
2021/11/03 01:33:47;;;;;;;86.35;24.48;;;3.10;99.90;;;;;;5006738;28;20085;-75
2021/11/03 01:36:14;;;;;;;78.25;22.55;;;3.00;99.90;;;;;;5005074;28;20325;-76
2021/11/03 01:38:40;;;;;;;85.22;22.88;;;2.90;99.90;;;;;;5040615;28;20092;-74
2021/11/03 01:41:08;;;;;;;64.35;20.80;;;2.80;99.90;;;;;;5022616;28;20527;-76
2021/11/03 01:43:48;;;;;;;58.85;19.00;;;2.70;99.90;;;;;;5023471;28;20049;-75
2021/11/03 01:46:24;;;;;;;57.20;19.23;;;2.70;99.90;;;;;;4991066;28;20595;-75
2021/11/03 01:49:25;;;;;;;63.88;19.48;;;2.80;99.90;;;;;;5007540;28;20104;-75
2021/11/03 01:52:12;;;;;;;93.22;23.80;;;2.70;99.90;;;;;;5023889;28;20053;-74
2021/11/03 01:54:54;;;;;;;94.25;24.52;;;2.70;99.90;;;;;;5025666;28;20135;-75
2021/11/03 01:57:31;;;;;;;85.22;24.00;;;2.70;99.90;;;;;;5031737;28;20073;-75
2021/11/03 02:00:04;;;;;;;159.80;32.60;;;2.70;99.90;;;;;;4992689;28;20062;-75
2021/11/03 02:02:42;;;;;;;226.57;32.60;;;2.60;99.90;;;;;;5020086;28;20053;-75
2021/11/03 02:05:13;;;;;;;132.45;26.27;;;2.60;99.90;;;;;;5024267;28;20068;-76
2021/11/03 02:07:42;;;;;;;111.35;24.73;;;2.50;99.90;;;;;;5057939;28;20590;-76
2021/11/03 02:10:11;;;;;;;91.82;23.73;;;2.40;99.90;;;;;;5000532;28;20115;-76
2021/11/03 02:12:40;;;;;;;114.97;25.83;;;2.50;99.90;;;;;;4996585;28;20141;-77
2021/11/03 02:15:09;;;;;;;94.97;23.50;;;2.50;99.90;;;;;;5024191;28;20057;-77
2021/11/03 02:17:38;;;;;;;77.40;21.88;;;2.40;99.90;;;;;;5022966;28;20041;-76
2021/11/03 02:20:10;;;;;;;76.60;20.27;;;2.30;99.90;;;;;;5023989;28;20420;-76
2021/11/03 02:22:59;;;;;;;65.95;20.42;;;2.20;99.90;;;;;;5023975;28;20122;-76
2021/11/03 02:25:33;;;;;;;68.55;21.13;;;2.10;99.90;;;;;;5008401;28;20053;-75
2021/11/03 02:28:03;;;;;;;100.40;23.27;;;2.10;99.90;;;;;;5008034;28;20084;-76
2021/11/03 02:30:30;;;;;;;79.88;22.00;;;2.00;99.90;;;;;;5017041;28;20145;-75
2021/11/03 02:33:02;;;;;;;73.70;20.95;;;1.90;99.90;;;;;;5005043;28;20511;-77
2021/11/03 02:35:29;;;;;;;89.53;22.65;;;1.90;99.90;;;;;;5025592;28;20056;-76
2021/11/03 02:37:57;;;;;;;86.18;20.75;;;1.80;99.90;;;;;;4991542;28;20384;-76
2021/11/03 02:40:47;;;;;;;88.97;22.35;;;1.80;99.90;;;;;;5016260;28;20108;-76
2021/11/03 02:43:38;;;;;;;74.90;23.15;;;1.80;99.90;;;;;;5015108;28;20060;-76
2021/11/03 02:46:05;;;;;;;92.60;23.85;;;1.90;99.90;;;;;;5011398;28;20168;-77
2021/11/03 02:48:36;;;;;;;102.55;24.40;;;1.90;99.90;;;;;;5000792;28;20068;-77
2021/11/03 02:51:08;;;;;;;94.88;23.83;;;1.90;99.90;;;;;;5004079;28;20492;-77
2021/11/03 02:53:42;;;;;;;94.35;24.20;;;1.80;99.90;;;;;;5007728;28;20045;-77
2021/11/03 02:56:09;;;;;;;231.93;31.52;;;1.90;99.90;;;;;;5023843;28;20126;-77
2021/11/03 02:58:37;;;;;;;120.88;26.27;;;2.00;99.90;;;;;;5007330;28;20308;-77
2021/11/03 03:01:14;;;;;;;92.63;23.52;;;1.90;99.90;;;;;;5007608;28;20470;-76
2021/11/03 03:03:45;;;;;;;88.90;22.05;;;1.80;99.90;;;;;;5023940;28;20072;-76
2021/11/03 03:06:20;;;;;;;80.55;21.70;;;1.80;99.90;;;;;;5024200;28;20238;-76
2021/11/03 03:08:47;;;;;;;81.80;21.30;;;1.80;99.90;;;;;;5024003;28;20060;-76
2021/11/03 03:11:15;;;;;;;108.28;25.20;;;1.80;99.90;;;;;;5018808;28;20049;-77
2021/11/03 03:13:42;;;;;;;74.43;20.02;;;1.70;99.90;;;;;;5024250;28;20065;-76
2021/11/03 03:16:09;;;;;;;69.50;19.20;;;1.70;99.90;;;;;;5023753;28;20057;-76
2021/11/03 03:18:36;;;;;;;61.10;18.52;;;1.60;99.90;;;;;;5022977;28;20045;-76
2021/11/03 03:21:04;;;;;;;65.22;19.42;;;1.50;99.90;;;;;;5021593;28;20145;-76
2021/11/03 03:23:42;;;;;;;63.45;17.98;;;1.50;99.90;;;;;;5007708;28;20148;-76
2021/11/03 03:26:11;;;;;;;68.35;18.63;;;1.50;99.90;;;;;;5023243;28;20060;-76
2021/11/03 03:28:39;;;;;;;75.82;19.75;;;1.70;99.90;;;;;;5025202;28;20046;-76
2021/11/03 03:31:07;;;;;;;56.83;18.70;;;1.60;99.90;;;;;;5012174;28;20045;-76
2021/11/03 03:33:40;;;;;;;70.57;19.55;;;1.60;99.90;;;;;;5005888;28;20084;-76
2021/11/03 03:36:08;;;;;;;60.75;17.67;;;1.60;99.90;;;;;;5020135;28;20041;-77
2021/11/03 03:38:36;;;;;;;66.55;18.30;;;1.80;99.90;;;;;;5012217;28;20071;-77
2021/11/03 03:41:04;;;;;;;72.07;18.52;;;1.80;99.90;;;;;;5024175;28;20470;-76
2021/11/03 03:43:31;;;;;;;62.28;17.20;;;1.80;99.90;;;;;;5010766;28;20450;-77
2021/11/03 03:45:58;;;;;;;65.63;18.35;;;1.90;99.90;;;;;;5027056;28;20056;-76
2021/11/03 03:48:25;;;;;;;59.33;18.10;;;1.90;99.90;;;;;;5026751;28;20041;-76
2021/11/03 03:50:54;;;;;;;59.63;17.70;;;1.80;99.90;;;;;;5026011;28;20054;-76
2021/11/03 03:53:22;;;;;;;57.35;17.38;;;1.70;99.90;;;;;;5027111;28;20037;-76
2021/11/03 03:56:13;;;;;;;49.15;16.40;;;1.70;99.90;;;;;;5025469;28;20061;-76
2021/11/03 03:58:41;;;;;;;64.95;18.13;;;1.70;99.90;;;;;;5041500;28;20054;-76
2021/11/03 04:01:13;;;;;;;66.45;18.40;;;1.70;99.90;;;;;;5030936;28;20041;-76
2021/11/03 04:03:42;;;;;;;59.25;16.60;;;1.60;99.90;;;;;;5026548;28;20050;-76
2021/11/03 04:06:12;;;;;;;59.70;17.10;;;1.60;99.90;;;;;;5029603;28;20049;-77
2021/11/03 04:08:39;;;;;;;47.15;15.60;;;1.50;99.90;;;;;;5009731;28;20053;-76
2021/11/03 04:11:06;;;;;;;46.75;15.05;;;1.40;99.90;;;;;;4998288;28;20046;-76
2021/11/03 04:13:35;;;;;;;44.45;15.30;;;1.40;99.90;;;;;;5026908;28;20049;-78
2021/11/03 04:16:03;;;;;;;57.63;15.68;;;1.30;99.90;;;;;;5009700;28;20639;-77
2021/11/03 04:18:30;;;;;;;49.50;16.95;;;1.20;99.90;;;;;;5009464;28;20152;-76
2021/11/03 04:20:57;;;;;;;47.30;15.27;;;1.30;99.90;;;;;;5008030;28;20236;-77
2021/11/03 04:23:25;;;;;;;50.65;15.73;;;1.30;99.90;;;;;;5008892;28;20109;-78
2021/11/03 04:25:52;;;;;;;38.53;13.50;;;1.30;99.90;;;;;;5008916;28;20061;-77
2021/11/03 04:28:20;;;;;;;57.42;15.93;;;1.30;99.90;;;;;;5008701;28;20049;-77
2021/11/03 04:30:48;;;;;;;53.10;18.20;;;1.30;99.90;;;;;;5025155;28;20601;-76
2021/11/03 04:33:18;;;;;;;47.15;14.65;;;1.20;99.90;;;;;;4973432;28;20128;-76
2021/11/03 04:35:47;;;;;;;51.13;15.40;;;1.20;99.90;;;;;;5021867;28;20150;-76
2021/11/03 04:38:15;;;;;;;41.63;14.02;;;1.20;99.90;;;;;;4993630;28;20214;-76
2021/11/03 04:40:43;;;;;;;43.83;15.10;;;1.10;99.90;;;;;;4991884;28;20411;-77
2021/11/03 04:43:11;;;;;;;48.67;15.35;;;1.10;99.90;;;;;;4992497;28;20107;-76
2021/11/03 04:45:38;;;;;;;45.67;14.95;;;1.30;99.90;;;;;;4992651;28;20060;-77
2021/11/03 04:48:06;;;;;;;51.40;14.75;;;1.20;99.90;;;;;;5009619;28;20057;-76
2021/11/03 04:50:33;;;;;;;48.25;15.32;;;1.10;99.90;;;;;;5008044;28;20132;-77
2021/11/03 04:53:01;;;;;;;47.85;16.10;;;1.10;99.90;;;;;;5025180;28;20046;-77
2021/11/03 04:55:31;;;;;;;46.88;15.73;;;1.10;99.90;;;;;;5024828;28;20107;-77
2021/11/03 04:57:58;;;;;;;45.78;15.32;;;1.20;99.90;;;;;;5025508;28;20563;-76
2021/11/03 05:00:29;;;;;;;47.35;14.73;;;1.30;99.90;;;;;;5024882;28;20037;-75
2021/11/03 05:03:00;;;;;;;49.20;15.40;;;1.40;99.90;;;;;;5009321;28;20535;-78
2021/11/03 05:05:27;;;;;;;55.83;16.17;;;1.20;99.90;;;;;;5008819;28;20614;-77
2021/11/03 05:07:55;;;;;;;59.75;17.55;;;1.40;99.90;;;;;;5024345;28;20538;-76
2021/11/03 05:10:23;;;;;;;69.95;18.45;;;1.50;99.90;;;;;;5008405;28;20276;-77
2021/11/03 05:12:52;;;;;;;76.78;18.67;;;1.70;99.90;;;;;;5008803;28;20060;-77
2021/11/03 05:15:19;;;;;;;87.20;20.42;;;1.70;99.90;;;;;;5007086;28;20152;-76
2021/11/03 05:17:47;;;;;;;61.42;17.67;;;1.80;99.90;;;;;;5023532;28;20132;-76
2021/11/03 05:20:17;;;;;;;73.13;18.30;;;1.80;99.90;;;;;;4977175;28;20571;-76
2021/11/03 05:22:45;;;;;;;64.80;17.27;;;1.90;99.90;;;;;;4984731;28;20160;-77
2021/11/03 05:25:19;;;;;;;80.07;18.77;;;2.00;99.90;;;;;;5018044;28;20053;-77
2021/11/03 05:27:46;;;;;;;80.05;19.40;;;2.00;99.90;;;;;;5025791;28;20531;-76
2021/11/03 05:30:13;;;;;;;332.48;40.30;;;2.00;99.90;;;;;;5024760;28;20052;-76
2021/11/03 05:32:40;;;;;;;221.75;31.60;;;2.00;99.90;;;;;;5025170;28;20111;-77
2021/11/03 05:35:09;;;;;;;125.47;24.38;;;2.00;99.90;;;;;;5006995;28;20044;-76
2021/11/03 05:37:37;;;;;;;86.85;20.00;;;2.00;99.90;;;;;;5006960;28;20061;-77
2021/11/03 05:40:07;;;;;;;73.68;18.38;;;2.00;99.90;;;;;;5005348;28;20119;-77
2021/11/03 05:42:33;;;;;;;76.47;18.75;;;2.10;99.90;;;;;;5039057;28;20061;-76
2021/11/03 05:45:00;;;;;;;68.47;20.58;;;2.20;99.90;;;;;;5026744;28;20256;-77
2021/11/03 05:47:29;;;;;;;66.80;20.63;;;2.10;99.90;;;;;;5044472;28;20174;-77
2021/11/03 05:49:57;;;;;;;57.97;19.02;;;2.00;99.90;;;;;;5028842;28;20049;-77
2021/11/03 05:52:25;;;;;;;60.08;18.52;;;2.00;99.90;;;;;;5009785;28;20053;-77
2021/11/03 05:54:52;;;;;;;59.10;20.35;;;2.10;99.90;;;;;;5022907;28;20542;-77
2021/11/03 05:57:29;;;;;;;60.55;18.90;;;2.20;99.90;;;;;;5020891;28;20056;-77
2021/11/03 05:59:57;;;;;;;67.13;19.25;;;2.10;99.90;;;;;;5009819;28;20111;-77
2021/11/03 06:02:23;;;;;;;107.13;22.40;;;2.10;99.90;;;;;;5027117;28;20159;-76
2021/11/03 06:04:51;;;;;;;109.47;22.00;;;1.90;99.90;;;;;;5009957;28;20102;-75
2021/11/03 06:07:21;;;;;;;95.22;20.35;;;1.90;99.90;;;;;;5045250;28;20075;-78
2021/11/03 06:09:52;;;;;;;106.45;22.38;;;1.90;99.90;;;;;;5016912;28;20304;-76
2021/11/03 06:12:19;;;;;;;105.90;22.48;;;2.00;99.90;;;;;;5023754;28;20522;-77
2021/11/03 06:14:46;;;;;;;150.13;24.60;;;1.90;99.90;;;;;;5009519;28;20045;-76
2021/11/03 06:17:13;;;;;;;114.93;22.33;;;1.90;99.90;;;;;;5042829;28;20541;-76
2021/11/03 06:19:40;;;;;;;85.63;20.20;;;1.80;99.90;;;;;;5028049;28;20388;-77
2021/11/03 06:22:07;;;;;;;125.53;24.63;;;1.90;99.90;;;;;;5008934;28;20427;-76
2021/11/03 06:24:34;;;;;;;137.57;24.92;;;2.00;99.90;;;;;;5026916;28;20051;-76
2021/11/03 06:27:02;;;;;;;120.72;22.05;;;2.10;99.90;;;;;;5026870;28;20161;-76
2021/11/03 06:29:29;;;;;;;113.13;25.27;;;2.30;99.90;;;;;;5045191;28;20260;-76
2021/11/03 06:31:55;;;;;;;151.95;26.65;;;2.40;99.90;;;;;;5044587;28;20057;-77
2021/11/03 06:34:22;;;;;;;401.98;50.38;;;2.60;99.90;;;;;;5027395;28;20045;-76
2021/11/03 06:36:49;;;;;;;152.85;29.52;;;3.00;99.90;;;;;;5012054;28;20052;-76
2021/11/03 06:39:16;;;;;;;138.38;30.88;;;3.20;99.90;;;;;;5049673;28;20056;-75
2021/11/03 06:41:43;;;;;;;138.10;31.17;;;3.50;99.90;;;;;;5054081;28;20519;-76
2021/11/03 06:44:10;;;;;;;135.55;30.27;;;3.60;99.90;;;;;;5031004;28;20068;-77
2021/11/03 06:46:37;;;;;;;128.88;29.67;;;3.80;99.90;;;;;;5029492;28;20474;-75
2021/11/03 06:49:04;;;;;;;132.85;30.02;;;3.90;99.90;;;;;;5047845;28;20053;-77
2021/11/03 06:51:32;;;;;;;146.43;32.28;;;4.10;99.90;;;;;;5028931;28;20061;-76
2021/11/03 06:54:00;;;;;;;143.65;32.92;;;4.20;99.90;;;;;;5046718;28;20464;-76
2021/11/03 06:56:27;;;;;;;167.18;39.53;;;4.30;99.90;;;;;;5027409;28;20088;-77
2021/11/03 06:58:54;;;;;;;127.63;31.55;;;4.40;99.90;;;;;;5040472;28;20061;-77
2021/11/03 07:01:23;;;;;;;117.97;29.45;;;4.40;99.90;;;;;;5044669;28;20499;-76
2021/11/03 07:03:51;;;;;;;121.45;32.58;;;4.50;99.90;;;;;;5025671;28;20061;-75
2021/11/03 07:06:19;;;;;;;144.52;33.85;;;4.50;99.90;;;;;;5026276;28;20055;-75
2021/11/03 07:08:47;;;;;;;129.00;32.72;;;4.60;99.90;;;;;;5044646;28;20057;-74
2021/11/03 07:11:14;;;;;;;124.95;32.33;;;4.60;99.90;;;;;;5025625;28;20115;-75
2021/11/03 07:13:41;;;;;;;117.72;31.15;;;4.60;99.90;;;;;;5029198;28;20423;-75
2021/11/03 07:16:08;;;;;;;100.82;30.02;;;4.60;99.90;;;;;;5014091;28;20529;-75
2021/11/03 07:18:35;;;;;;;121.53;31.73;;;4.70;99.90;;;;;;5029098;28;20068;-75
2021/11/03 07:21:02;;;;;;;125.78;32.90;;;4.80;99.90;;;;;;5030760;28;20049;-75
2021/11/03 07:23:29;;;;;;;148.07;35.22;;;4.80;99.90;;;;;;5049006;28;20056;-75
2021/11/03 07:25:56;;;;;;;112.95;34.72;;;4.70;99.90;;;;;;5014310;28;20041;-75
2021/11/03 07:28:24;;;;;;;128.15;33.80;;;4.70;99.90;;;;;;5030299;28;20048;-75
2021/11/03 07:30:52;;;;;;;101.50;31.90;;;4.70;99.90;;;;;;5039383;28;20053;-75
2021/11/03 07:33:19;;;;;;;132.88;35.50;;;4.80;99.90;;;;;;5048872;28;20052;-75
2021/11/03 07:35:46;;;;;;;131.05;35.72;;;4.80;99.90;;;;;;5031323;28;20049;-75
2021/11/03 07:38:14;;;;;;;142.88;37.15;;;4.80;99.90;;;;;;5012921;28;20053;-75
2021/11/03 07:40:44;;;;;;;149.68;37.47;;;4.90;99.90;;;;;;5047130;28;20053;-75
2021/11/03 07:43:12;;;;;;;147.95;38.17;;;5.00;99.90;;;;;;5049465;28;20114;-75
2021/11/03 07:45:39;;;;;;;140.40;40.45;;;5.00;99.90;;;;;;5048070;28;20103;-75
2021/11/03 07:48:07;;;;;;;152.90;44.30;;;4.80;99.90;;;;;;5048846;28;20061;-75
2021/11/03 07:50:39;;;;;;;155.20;46.92;;;4.80;99.90;;;;;;5049359;28;20132;-75
2021/11/03 07:53:07;;;;;;;120.70;34.42;;;4.90;99.90;;;;;;5029948;28;20055;-75
2021/11/03 07:55:35;;;;;;;98.30;32.25;;;4.90;99.90;;;;;;5014047;28;20450;-75
2021/11/03 07:58:03;;;;;;;113.72;37.72;;;4.90;99.90;;;;;;5030738;28;20513;-75
2021/11/03 08:00:33;;;;;;;117.10;37.28;;;5.00;99.90;;;;;;5024807;28;20343;-75
2021/11/03 08:03:00;;;;;;;108.97;36.85;;;5.00;99.90;;;;;;5011857;28;20180;-75
2021/11/03 08:05:28;;;;;;;151.90;60.05;;;5.00;99.90;;;;;;5048232;28;20049;-74
2021/11/03 08:07:57;;;;;;;213.90;88.57;;;5.10;99.90;;;;;;5031670;28;20151;-76
2021/11/03 08:10:24;;;;;;;129.32;53.15;;;5.20;99.90;;;;;;5046583;28;20399;-75
2021/11/03 08:12:55;;;;;;;123.93;44.08;;;5.20;99.90;;;;;;5048024;28;20085;-75
2021/11/03 08:15:23;;;;;;;128.82;45.33;;;5.30;99.90;;;;;;5048674;28;20107;-75
2021/11/03 08:17:55;;;;;;;101.63;33.83;;;5.40;99.90;;;;;;5012973;28;20049;-75
2021/11/03 08:20:26;;;;;;;98.43;31.52;;;5.50;99.90;;;;;;5047694;28;20045;-75
2021/11/03 08:22:54;;;;;;;73.55;25.15;;;5.70;99.90;;;;;;5048487;28;20084;-75
2021/11/03 08:25:22;;;;;;;84.40;28.27;;;5.80;99.90;;;;;;5027882;28;20106;-75
2021/11/03 08:27:49;;;;;;;85.18;29.17;;;5.80;99.90;;;;;;5013714;28;20274;-75
2021/11/03 08:30:17;;;;;;;77.40;26.08;;;5.90;99.90;;;;;;5047250;28;20478;-75
2021/11/03 08:32:54;;;;;;;91.72;28.45;;;5.90;99.90;;;;;;5029419;28;20208;-75
2021/11/03 08:35:25;;;;;;;97.03;28.48;;;5.90;99.90;;;;;;5047086;28;20056;-76
2021/11/03 08:37:53;;;;;;;83.65;28.10;;;6.10;99.90;;;;;;5028965;28;20183;-76
2021/11/03 08:40:23;;;;;;;82.60;26.75;;;6.10;99.90;;;;;;5022819;28;20106;-74
2021/11/03 08:42:50;;;;;;;65.40;25.77;;;6.10;99.90;;;;;;5047481;28;20065;-74
2021/11/03 08:45:17;;;;;;;73.75;26.05;;;6.10;99.90;;;;;;5047726;28;20481;-74
2021/11/03 08:47:45;;;;;;;69.97;25.65;;;6.20;99.90;;;;;;5028625;28;20048;-74
2021/11/03 08:50:17;;;;;;;83.88;27.98;;;6.30;99.90;;;;;;4997523;28;20194;-74
2021/11/03 08:52:44;;;;;;;70.97;25.05;;;6.40;99.90;;;;;;5044780;28;20498;-74
2021/11/03 08:55:12;;;;;;;89.88;28.88;;;6.50;99.90;;;;;;5040729;28;20102;-75
2021/11/03 08:57:40;;;;;;;65.88;25.60;;;6.60;99.90;;;;;;5046675;28;20124;-74
2021/11/03 09:00:11;;;;;;;62.40;24.27;;;6.60;99.90;;;;;;5045458;28;20573;-76
2021/11/03 09:02:38;;;;;;;69.72;27.17;;;6.60;99.90;;;;;;5026697;28;20046;-76
2021/11/03 09:05:05;;;;;;;66.88;26.90;;;6.80;99.90;;;;;;5009645;28;20073;-75
2021/11/03 09:07:33;;;;;;;65.78;25.00;;;6.80;99.90;;;;;;5027698;28;20492;-76
2021/11/03 09:10:06;;;;;;;58.33;24.23;;;6.90;99.90;;;;;;5042498;28;20049;-76
2021/11/03 09:12:33;;;;;;;62.33;24.52;;;6.90;99.90;;;;;;5039861;28;20267;-74
2021/11/03 09:15:00;;;;;;;62.20;26.02;;;6.90;99.90;;;;;;5046937;28;20057;-74
2021/11/03 09:17:27;;;;;;;55.72;23.48;;;7.00;99.90;;;;;;5027531;28;20099;-74
2021/11/03 09:19:55;;;;;;;56.97;25.85;;;6.90;99.90;;;;;;5046525;28;20048;-75
2021/11/03 09:22:22;;;;;;;50.55;23.23;;;7.00;99.90;;;;;;5029024;28;20106;-74
2021/11/03 09:24:49;;;;;;;52.05;23.60;;;7.00;99.90;;;;;;5027993;28;20065;-73
2021/11/03 09:27:16;;;;;;;43.65;21.25;;;7.10;99.90;;;;;;5028258;28;20033;-73
2021/11/03 09:29:45;;;;;;;41.13;20.20;;;7.00;99.90;;;;;;5028987;28;20057;-74
2021/11/03 09:32:14;;;;;;;39.13;20.38;;;7.10;99.90;;;;;;5043590;28;20048;-73
2021/11/03 09:34:44;;;;;;;32.78;17.42;;;6.90;99.90;;;;;;5047090;28;20179;-73
2021/11/03 09:37:15;;;;;;;36.00;18.45;;;6.90;99.90;;;;;;5027739;28;20126;-73
2021/11/03 09:39:44;;;;;;;37.50;19.67;;;6.90;99.90;;;;;;5045280;28;20391;-74
2021/11/03 09:42:13;;;;;;;39.88;21.38;;;6.80;99.90;;;;;;5046191;28;20072;-74
2021/11/03 09:44:43;;;;;;;38.25;19.83;;;6.80;99.90;;;;;;5046775;28;20057;-74
2021/11/03 09:47:27;;;;;;;35.33;19.20;;;6.80;99.90;;;;;;5045939;28;20048;-73
2021/11/03 09:50:33;;;;;;;39.20;18.75;;;6.80;99.90;;;;;;5044925;28;20328;-74
2021/11/03 09:53:16;;;;;;;44.22;20.70;;;6.80;99.90;;;;;;5006248;28;20057;-74
2021/11/03 09:55:43;;;;;;;42.33;21.35;;;6.80;99.90;;;;;;5028261;28;20071;-74
2021/11/03 09:58:34;;;;;;;47.80;22.00;;;6.80;99.90;;;;;;5029735;28;20451;-73
2021/11/03 10:01:25;;;;;;;46.65;23.23;;;6.80;99.90;;;;;;5019704;28;20049;-74
2021/11/03 10:04:00;;;;;;;41.83;20.27;;;6.80;99.90;;;;;;5043384;28;20454;-74
2021/11/03 10:06:31;;;;;;;44.85;22.15;;;6.80;99.90;;;;;;5028289;28;20052;-73
2021/11/03 10:08:58;;;;;;;47.25;21.75;;;6.80;99.90;;;;;;5028032;28;20064;-74
2021/11/03 10:11:27;;;;;;;47.72;22.80;;;6.90;99.90;;;;;;5044226;28;20516;-73
2021/11/03 10:13:55;;;;;;;53.00;23.75;;;6.90;99.90;;;;;;5046735;28;20068;-74
2021/11/03 10:16:44;;;;;;;59.13;25.10;;;6.90;99.90;;;;;;5027212;28;20119;-75
2021/11/03 10:19:13;;;;;;;49.83;22.90;;;7.10;99.90;;;;;;5045852;28;20048;-73
2021/11/03 10:21:46;;;;;;;49.83;21.83;;;7.00;99.90;;;;;;5043774;28;20045;-71
2021/11/03 10:24:13;;;;;;;52.00;23.55;;;7.00;99.90;;;;;;5044809;28;20217;-71
2021/11/03 10:26:58;;;;;;;50.58;24.27;;;7.10;99.90;;;;;;5010363;28;20481;-72
2021/11/03 10:29:28;;;;;;;51.15;23.52;;;7.10;99.90;;;;;;5041792;28;20053;-72
2021/11/03 10:31:57;;;;;;;48.30;24.58;;;7.30;99.90;;;;;;5034863;28;20347;-73
2021/11/03 10:34:33;;;;;;;45.30;23.13;;;7.40;99.90;;;;;;5030247;28;20056;-71
2021/11/03 10:37:25;;;;;;;44.38;23.98;;;7.50;99.90;;;;;;5042584;28;20084;-73
2021/11/03 10:39:56;;;;;;;41.35;22.23;;;7.40;99.90;;;;;;5022884;28;20102;-71
2021/11/03 10:42:27;;;;;;;44.08;22.02;;;7.40;99.90;;;;;;5033267;28;20049;-72
2021/11/03 10:45:12;;;;;;;47.58;22.77;;;7.40;99.90;;;;;;5027811;28;20079;-72
2021/11/03 10:47:39;;;;;;;38.80;21.35;;;7.50;99.90;;;;;;5028027;28;20561;-71
2021/11/03 10:50:40;;;;;;;36.50;20.58;;;7.60;99.90;;;;;;5033218;28;20580;-73
2021/11/03 10:53:19;;;;;;;35.38;20.08;;;7.60;99.90;;;;;;5049935;28;20049;-73
2021/11/03 10:55:57;;;;;;;37.60;20.98;;;7.60;99.90;;;;;;5050809;28;20053;-72
2021/11/03 10:58:29;;;;;;;38.42;19.90;;;7.50;99.90;;;;;;5016701;28;20415;-71
2021/11/03 11:01:13;;;;;;;36.45;20.15;;;7.60;99.90;;;;;;5049095;28;20052;-72
2021/11/03 11:03:52;;;;;;;35.05;19.70;;;7.60;99.90;;;;;;5050115;28;20060;-72
2021/11/03 11:06:26;;;;;;;38.45;19.58;;;7.60;99.90;;;;;;5051002;28;20045;-73
2021/11/03 11:09:03;;;;;;;34.23;18.53;;;7.70;99.90;;;;;;5015746;28;20526;-72
2021/11/03 11:11:32;;;;;;;33.42;20.00;;;7.70;99.90;;;;;;5050813;28;20388;-73
2021/11/03 11:14:10;;;;;;;33.40;19.17;;;7.70;99.90;;;;;;5051894;28;20479;-73
2021/11/03 11:16:56;;;;;;;35.17;19.17;;;7.80;99.90;;;;;;5050841;28;20474;-72
2021/11/03 11:19:55;;;;;;;33.53;18.52;;;7.80;99.90;;;;;;5032305;28;20110;-72
2021/11/03 11:22:44;;;;;;;31.25;17.80;;;7.90;99.90;;;;;;5049299;28;20072;-73
2021/11/03 11:25:19;;;;;;;28.67;17.15;;;7.80;99.90;;;;;;5049964;28;20053;-72
2021/11/03 11:28:04;;;;;;;;;;;7.80;99.90;;;;;;5051751;28;20396;-71
2021/11/03 11:31:00;;;;;;;31.77;18.42;;;7.80;99.90;;;;;;5032794;28;19920;-72
2021/11/03 11:33:34;;;;;;;29.00;18.27;;;7.80;99.90;;;;;;5048523;28;20120;-73
2021/11/03 11:36:22;;;;;;;34.20;18.35;;;7.70;99.90;;;;;;5029981;28;20142;-70
2021/11/03 11:39:09;;;;;;;32.60;18.95;;;7.80;99.90;;;;;;5031600;28;20130;-71
2021/11/03 11:41:55;;;;;;;32.72;18.98;;;7.70;99.90;;;;;;5024844;28;20110;-71
2021/11/03 11:44:27;;;;;;;36.03;19.35;;;7.60;99.90;;;;;;5049981;28;20286;-72
2021/11/03 11:46:58;;;;;;;41.15;19.90;;;7.50;99.90;;;;;;5050557;28;20052;-72
2021/11/03 11:49:35;;;;;;;36.75;21.98;;;7.50;99.90;;;;;;5028793;28;20048;-71
2021/11/03 11:52:16;;;;;;;31.95;18.67;;;7.50;99.90;;;;;;5031579;28;20510;-72
2021/11/03 11:55:11;;;;;;;32.22;18.27;;;7.60;99.90;;;;;;5050860;28;20396;-70
2021/11/03 11:58:07;;;;;;;31.40;18.95;;;7.60;99.90;;;;;;5037080;28;20052;-70
2021/11/03 12:00:36;;;;;;;39.38;20.25;;;7.50;99.90;;;;;;5016928;28;20075;-69
2021/11/03 12:03:09;;;;;;;38.45;18.20;;;7.50;99.90;;;;;;5027264;28;20037;-71
2021/11/03 12:05:56;;;;;;;32.30;17.88;;;7.40;99.90;;;;;;5046391;28;20571;-72
2021/11/03 12:09:15;;;;;;;33.67;19.88;;;7.50;99.90;;;;;;5030481;28;20060;-72
2021/11/03 12:11:51;;;;;;;31.35;17.70;;;7.50;99.90;;;;;;5043466;28;20175;-70
2021/11/03 12:14:33;;;;;;;36.05;19.73;;;7.50;99.90;;;;;;5047718;28;20053;-71
2021/11/03 12:17:03;;;;;;;37.35;21.05;;;7.50;99.90;;;;;;5029558;28;20056;-71
2021/11/03 12:19:42;;;;;;;37.30;20.60;;;7.50;99.90;;;;;;5045728;28;20057;-72
2021/11/03 12:22:38;;;;;;;29.20;17.50;;;7.50;99.90;;;;;;5046286;28;20049;-70
2021/11/03 12:25:30;;;;;;;37.85;20.75;;;7.50;99.90;;;;;;5045624;28;20184;-71
2021/11/03 12:28:09;;;;;;;35.08;20.83;;;7.40;99.90;;;;;;5036271;28;20515;-70
2021/11/03 12:30:42;;;;;;;35.10;20.60;;;7.50;99.90;;;;;;5034933;28;20357;-71
2021/11/03 12:33:13;;;;;;;36.55;20.52;;;7.40;99.90;;;;;;5046584;28;20411;-70
2021/11/03 12:35:40;;;;;;;33.03;18.60;;;7.40;99.90;;;;;;5046771;28;20531;-69
2021/11/03 12:38:10;;;;;;;37.03;20.67;;;7.40;99.90;;;;;;5044475;28;20056;-72
2021/11/03 12:40:40;;;;;;;33.38;19.00;;;7.40;99.90;;;;;;5028120;28;20503;-71
2021/11/03 12:43:34;;;;;;;38.15;20.67;;;7.40;99.90;;;;;;5030111;28;20091;-72
2021/11/03 12:46:15;;;;;;;36.05;22.17;;;7.40;99.90;;;;;;5024465;28;20056;-70
2021/11/03 12:49:01;;;;;;;40.78;22.17;;;7.40;99.90;;;;;;5029171;28;20067;-72
2021/11/03 12:51:36;;;;;;;35.53;21.33;;;7.50;99.90;;;;;;5029018;28;20276;-71
2021/11/03 12:54:14;;;;;;;38.40;23.60;;;7.50;99.90;;;;;;5046611;28;20044;-71
2021/11/03 12:56:59;;;;;;;42.20;24.92;;;7.40;99.90;;;;;;5028308;28;20057;-72